Time;durP1;ratioP1;P1;durP2;ratioP2;P2;SDS_P1;SDS_P2;PMS_P1;PMS_P2;Temp;Humidity;BMP_temperature;BMP_pressure;BME280_temperature;BME280_humidity;BME280_pressure;Samples;Min_cycle;Max_cycle;Signal;HPM_P1;HPM_P2
2023/09/20 00:00:34;;;;;;;0.45;0.45;;;;;;;12.28;86.90;99314.38;6182229;23;20067;-87
2023/09/20 00:03:01;;;;;;;0.50;0.50;;;;;;;12.23;87.16;99300.75;6160372;23;20020;-86
2023/09/20 00:05:32;;;;;;;0.50;0.50;;;;;;;12.25;86.99;99314.84;6161516;23;20044;-89
2023/09/20 00:08:03;;;;;;;0.52;0.52;;;;;;;12.19;87.06;99306.91;6185726;23;20081;-89
2023/09/20 00:10:31;;;;;;;0.50;0.50;;;;;;;12.18;87.45;99310.66;6158643;23;20021;-88
2023/09/20 00:12:58;;;;;;;0.50;0.50;;;;;;;12.16;87.46;99299.28;6160291;23;20021;-88
2023/09/20 00:15:30;;;;;;;0.50;0.50;;;;;;;12.22;87.36;99309.13;6105180;23;20056;-88
2023/09/20 00:18:00;;;;;;;0.40;0.40;;;;;;;12.22;87.16;99315.34;6122653;23;20053;-88
2023/09/20 00:20:27;;;;;;;0.50;0.50;;;;;;;12.20;86.89;99308.53;6151013;23;20462;-89
2023/09/20 00:22:54;;;;;;;0.50;0.50;;;;;;;12.17;86.88;99306.34;6151909;23;20030;-87
2023/09/20 00:25:27;;;;;;;0.50;0.50;;;;;;;12.14;86.79;99302.25;6128173;23;20045;-88
2023/09/20 00:27:54;;;;;;;0.50;0.50;;;;;;;12.12;86.83;99298.94;6128737;23;20558;-88
2023/09/20 00:30:21;;;;;;;0.50;0.50;;;;;;;12.15;86.78;99306.56;6152777;23;20075;-88
2023/09/20 00:32:48;;;;;;;0.45;0.45;;;;;;;12.11;86.85;99314.38;6152871;23;20029;-88
2023/09/20 00:35:19;;;;;;;0.40;0.40;;;;;;;12.08;86.91;99304.06;6152421;23;20026;-86
2023/09/20 00:37:52;;;;;;;0.50;0.50;;;;;;;12.07;86.99;99307.81;6128849;23;20160;-86
2023/09/20 00:40:21;;;;;;;0.50;0.50;;;;;;;12.03;87.24;99314.78;6103266;23;20052;-86
2023/09/20 00:42:50;;;;;;;0.50;0.50;;;;;;;12.00;87.51;99309.88;6152191;23;20048;-87
2023/09/20 00:45:19;;;;;;;0.50;0.50;;;;;;;11.99;87.57;99312.81;6105451;23;20087;-85
2023/09/20 00:47:57;;;;;;;0.50;0.50;;;;;;;12.00;87.51;99309.88;6159043;23;20063;-84
2023/09/20 00:50:29;;;;;;;0.50;0.50;;;;;;;12.00;87.32;99312.59;6183838;23;20076;-87
2023/09/20 00:52:56;;;;;;;0.50;0.50;;;;;;;11.94;86.92;99305.44;6161137;23;20021;-86
2023/09/20 00:55:29;;;;;;;0.50;0.50;;;;;;;11.93;87.59;99306.53;6185896;23;20025;-85
2023/09/20 00:58:07;;;;;;;0.52;0.52;;;;;;;11.94;87.52;99313.56;6159277;23;20539;-87
2023/09/20 01:00:37;;;;;;;0.50;0.50;;;;;;;11.94;87.59;99318.97;6158513;23;20032;-87
2023/09/20 01:03:05;;;;;;;0.50;0.50;;;;;;;11.89;87.59;99316.19;6158437;23;20021;-87
2023/09/20 01:05:42;;;;;;;0.50;0.50;;;;;;;11.82;87.67;99310.06;6158108;23;20029;-87
2023/09/20 01:08:11;;;;;;;0.50;0.50;;;;;;;11.83;87.90;99300.91;6135905;23;20472;-86
2023/09/20 01:10:39;;;;;;;0.50;0.50;;;;;;;11.81;88.02;99313.84;6158799;23;20354;-87
2023/09/20 01:13:09;;;;;;;0.50;0.50;;;;;;;11.77;88.04;99312.69;6184993;23;20052;-86
2023/09/20 01:15:37;;;;;;;0.57;0.57;;;;;;;11.71;88.22;99309.91;6184491;23;20025;-87
2023/09/20 01:18:07;;;;;;;0.50;0.50;;;;;;;11.65;88.60;99300.06;6158135;23;20364;-86
2023/09/20 01:20:37;;;;;;;0.50;0.50;;;;;;;11.69;88.54;99312.03;6158335;23;20467;-86
2023/09/20 01:23:05;;;;;;;0.60;0.60;;;;;;;11.69;88.72;99313.91;6186249;23;20033;-86
2023/09/20 01:25:42;;;;;;;0.50;0.50;;;;;;;11.67;88.76;99314.19;6189699;23;20027;-87
2023/09/20 01:28:10;;;;;;;0.57;0.57;;;;;;;11.64;88.72;99309.22;6188453;23;20021;-87
2023/09/20 01:30:41;;;;;;;0.50;0.50;;;;;;;11.66;88.57;99307.09;6160738;23;20021;-87
2023/09/20 01:33:09;;;;;;;0.50;0.50;;;;;;;11.65;88.56;99316.28;6185412;23;20021;-87
2023/09/20 01:35:37;;;;;;;0.50;0.50;;;;;;;11.59;88.54;99317.25;6184236;23;20048;-87
2023/09/20 01:38:07;;;;;;;0.50;0.50;;;;;;;11.59;88.78;99314.56;6184419;23;20091;-86
2023/09/20 01:40:39;;;;;;;0.50;0.50;;;;;;;11.61;88.65;99315.13;6183758;23;20025;-86
2023/09/20 01:43:07;;;;;;;0.50;0.50;;;;;;;11.58;88.89;99312.94;6184352;23;20029;-87
2023/09/20 01:45:36;;;;;;;0.50;0.50;;;;;;;11.56;89.02;99317.75;6157700;23;20029;-89
2023/09/20 01:48:10;;;;;;;0.50;0.50;;;;;;;11.53;89.01;99306.63;6158211;23;20475;-87
2023/09/20 01:50:38;;;;;;;0.52;0.52;;;;;;;11.53;89.17;99318.25;6160010;23;20031;-86
2023/09/20 01:53:10;;;;;;;0.50;0.50;;;;;;;11.41;89.41;99304.78;6186228;23;20041;-87
2023/09/20 01:55:42;;;;;;;0.50;0.50;;;;;;;11.43;89.62;99315.34;6159399;23;20100;-87
2023/09/20 01:58:12;;;;;;;0.50;0.50;;;;;;;11.40;89.82;99321.25;6158006;23;20028;-87
2023/09/20 02:00:42;;;;;;;0.50;0.50;;;;;;;11.43;89.70;99315.34;6158117;23;20083;-88
2023/09/20 02:03:14;;;;;;;0.50;0.50;;;;;;;11.41;89.65;99309.38;6184486;23;20432;-86
2023/09/20 02:05:47;;;;;;;0.50;0.50;;;;;;;11.36;89.96;99306.56;6183929;23;20101;-87
2023/09/20 02:08:15;;;;;;;0.50;0.50;;;;;;;11.37;89.94;99313.59;6182543;23;20044;-86
2023/09/20 02:10:46;;;;;;;0.50;0.50;;;;;;;11.35;90.08;99311.16;6157365;23;20526;-87
2023/09/20 02:13:17;;;;;;;0.50;0.50;;;;;;;11.35;90.18;99310.34;6185372;23;20048;-86
2023/09/20 02:15:46;;;;;;;0.50;0.50;;;;;;;11.30;90.12;99307.56;6161285;23;20032;-86
2023/09/20 02:18:15;;;;;;;0.50;0.50;;;;;;;11.27;90.43;99309.66;6185977;23;20029;-86
2023/09/20 02:20:44;;;;;;;0.50;0.50;;;;;;;11.11;90.35;99291.50;6158474;23;20021;-86
2023/09/20 02:23:12;;;;;;;0.50;0.50;;;;;;;11.22;90.60;99306.88;6183466;23;20029;-87
2023/09/20 02:25:42;;;;;;;0.50;0.50;;;;;;;11.25;90.55;99311.78;6157298;23;20020;-87
2023/09/20 02:28:10;;;;;;;0.50;0.50;;;;;;;11.24;90.60;99312.84;6183572;23;20075;-86
2023/09/20 02:30:38;;;;;;;0.50;0.50;;;;;;;11.23;90.40;99316.59;6157171;23;20096;-87
2023/09/20 02:33:07;;;;;;;0.50;0.50;;;;;;;11.20;90.48;99311.69;6183317;23;20040;-87
2023/09/20 02:35:39;;;;;;;0.50;0.50;;;;;;;11.17;90.77;99308.66;6183137;23;20021;-86
2023/09/20 02:38:07;;;;;;;0.60;0.60;;;;;;;11.07;90.86;99295.78;6183922;23;20448;-87
2023/09/20 02:40:35;;;;;;;0.50;0.50;;;;;;;11.10;91.08;99307.97;6156847;23;20028;-86
2023/09/20 02:43:10;;;;;;;0.50;0.50;;;;;;;11.07;91.52;99299.28;6133654;23;20107;-86
2023/09/20 02:45:39;;;;;;;0.50;0.50;;;;;;;11.04;91.70;99304.38;6156715;23;20361;-87
2023/09/20 02:48:12;;;;;;;0.50;0.50;;;;;;;11.05;91.72;99304.09;6134969;23;20025;-86
2023/09/20 02:50:44;;;;;;;0.50;0.50;;;;;;;11.00;91.79;99289.69;6182941;23;20025;-87
2023/09/20 02:53:12;;;;;;;0.50;0.50;;;;;;;11.06;91.52;99296.81;6184043;23;20021;-85
2023/09/20 02:55:42;;;;;;;0.50;0.50;;;;;;;11.05;91.14;99296.00;6183128;23;20021;-85
2023/09/20 02:58:12;;;;;;;0.50;0.50;;;;;;;11.03;91.35;99300.81;6133878;23;20330;-85
2023/09/20 03:00:46;;;;;;;0.55;0.55;;;;;;;11.01;91.41;99300.25;6184201;23;20025;-86
2023/09/20 03:03:17;;;;;;;0.50;0.50;;;;;;;10.96;91.42;99292.06;6157840;23;20021;-86
2023/09/20 03:05:45;;;;;;;0.60;0.60;;;;;;;11.00;91.52;99295.09;6133293;23;20052;-86
2023/09/20 03:08:13;;;;;;;0.50;0.50;;;;;;;10.97;91.55;99292.88;6184652;23;20495;-85
2023/09/20 03:10:42;;;;;;;0.52;0.52;;;;;;;10.99;91.55;99296.97;6157055;23;20021;-88
2023/09/20 03:13:16;;;;;;;0.50;0.50;;;;;;;11.02;91.48;99298.38;6157456;23;20025;-86
2023/09/20 03:15:48;;;;;;;0.50;0.50;;;;;;;11.02;91.38;99295.69;6157741;23;20021;-87
2023/09/20 03:18:22;;;;;;;0.50;0.50;;;;;;;11.02;91.16;99295.69;6157575;23;20025;-87
2023/09/20 03:21:10;;;;;;;0.60;0.60;;;;;;;10.99;91.03;99294.28;6157486;23;20031;-88
2023/09/20 03:23:39;;;;;;;0.50;0.50;;;;;;;10.97;91.25;99300.97;6133234;23;20477;-87
2023/09/20 03:26:09;;;;;;;0.50;0.50;;;;;;;10.94;91.25;99285.22;6157726;23;20456;-87
2023/09/20 03:28:48;;;;;;;0.50;0.50;;;;;;;11.00;91.18;99292.38;6158011;23;20021;-86
2023/09/20 03:31:18;;;;;;;0.60;0.60;;;;;;;11.04;91.20;99298.97;6157309;23;20352;-87
2023/09/20 03:33:49;;;;;;;0.60;0.60;;;;;;;11.03;90.93;99297.31;6156966;23;20675;-87
2023/09/20 03:36:21;;;;;;;0.50;0.50;;;;;;;11.03;90.79;99291.91;6157364;23;20025;-88
2023/09/20 03:38:49;;;;;;;0.57;0.57;;;;;;;10.93;91.15;99280.91;6157461;23;20053;-87
2023/09/20 03:41:17;;;;;;;0.50;0.50;;;;;;;11.07;90.59;99290.38;6157872;23;20025;-90
2023/09/20 03:43:45;;;;;;;0.50;0.50;;;;;;;11.12;90.47;99298.56;6183561;23;20021;-89
2023/09/20 03:46:14;;;;;;;0.50;0.50;;;;;;;11.16;90.19;99305.13;6157202;23;20033;-88
2023/09/20 03:48:47;;;;;;;0.50;0.50;;;;;;;11.10;90.12;99287.19;6157285;23;20045;-84
2023/09/20 03:51:15;;;;;;;0.60;0.60;;;;;;;11.17;89.81;99287.88;6182965;23;20029;-86
2023/09/20 03:53:44;;;;;;;0.52;0.52;;;;;;;11.16;89.59;99288.09;6181322;23;20100;-85
2023/09/20 03:56:18;;;;;;;0.60;0.60;;;;;;;11.24;89.46;99291.25;6132210;23;20025;-84
2023/09/20 03:58:46;;;;;;;0.60;0.60;;;;;;;11.27;89.26;99298.03;6133762;23;20028;-86
2023/09/20 04:01:13;;;;;;;0.55;0.55;;;;;;;11.31;89.05;99296.47;6158189;23;20028;-85
2023/09/20 04:03:42;;;;;;;0.52;0.52;;;;;;;11.32;89.08;99308.09;6158486;23;20063;-83
2023/09/20 04:06:10;;;;;;;0.50;0.50;;;;;;;11.30;88.81;99302.97;6158490;23;20021;-83
2023/09/20 04:08:39;;;;;;;0.60;0.60;;;;;;;11.33;88.83;99298.94;6184428;23;20452;-82
2023/09/20 04:11:07;;;;;;;0.50;0.50;;;;;;;11.33;88.70;99293.56;6158513;23;20028;-82
2023/09/20 04:13:34;;;;;;;0.60;0.60;;;;;;;11.40;88.48;99307.75;6158783;23;20478;-84
2023/09/20 04:16:06;;;;;;;0.60;0.60;;;;;;;11.48;88.12;99302.75;6181402;23;20021;-82
2023/09/20 04:18:33;;;;;;;0.60;0.60;;;;;;;11.54;87.69;99300.94;6129660;23;20025;-83
2023/09/20 04:21:01;;;;;;;0.50;0.50;;;;;;;11.58;87.32;99304.81;6183204;23;20028;-82
2023/09/20 04:23:32;;;;;;;0.50;0.50;;;;;;;11.58;87.51;99312.94;6157311;23;20029;-86
2023/09/20 04:25:59;;;;;;;0.60;0.60;;;;;;;11.63;87.40;99307.59;6182813;23;20025;-85
2023/09/20 04:28:29;;;;;;;0.52;0.52;;;;;;;11.73;86.94;99300.75;6157549;23;20144;-84
2023/09/20 04:30:58;;;;;;;0.50;0.50;;;;;;;11.78;86.58;99317.06;6158213;23;20361;-85
2023/09/20 04:33:25;;;;;;;0.50;0.50;;;;;;;11.83;86.32;99317.94;6129017;23;20035;-84
2023/09/20 04:35:58;;;;;;;0.60;0.60;;;;;;;11.87;86.10;99307.47;6182774;23;20448;-84
2023/09/20 04:38:27;;;;;;;0.50;0.50;;;;;;;11.92;85.80;99315.69;6155016;23;20394;-83
2023/09/20 04:40:56;;;;;;;0.50;0.50;;;;;;;12.00;85.39;99319.84;6178193;23;20067;-84
2023/09/20 04:43:24;;;;;;;0.60;0.60;;;;;;;12.05;85.04;99309.97;6154934;23;20502;-85
2023/09/20 04:45:52;;;;;;;0.50;0.50;;;;;;;12.10;84.80;99311.91;6153600;23;20027;-85
2023/09/20 04:48:20;;;;;;;0.60;0.60;;;;;;;12.14;84.74;99311.16;6154470;23;20827;-86
2023/09/20 04:50:51;;;;;;;0.50;0.50;;;;;;;12.23;84.35;99310.75;6128792;23;20061;-85
2023/09/20 04:53:21;;;;;;;0.50;0.50;;;;;;;12.27;83.78;99306.47;6130027;23;20036;-85
2023/09/20 04:55:49;;;;;;;0.60;0.60;;;;;;;12.39;83.66;99307.22;6128955;23;20031;-86
2023/09/20 04:58:18;;;;;;;0.60;0.60;;;;;;;12.45;82.96;99298.06;6152626;23;20021;-85
2023/09/20 05:00:46;;;;;;;0.60;0.60;;;;;;;12.57;82.59;99306.91;6154438;23;20066;-87
2023/09/20 05:03:15;;;;;;;0.60;0.60;;;;;;;12.67;81.90;99306.22;6156269;23;20025;-86
2023/09/20 05:05:44;;;;;;;0.50;0.50;;;;;;;12.79;81.58;99308.84;6181412;23;20044;-86
2023/09/20 05:08:15;;;;;;;0.60;0.60;;;;;;;12.90;81.18;99299.75;6157302;23;20062;-89
2023/09/20 05:10:46;;;;;;;0.60;0.60;;;;;;;13.02;80.17;99310.47;6161887;23;20025;-86
2023/09/20 05:13:16;;;;;;;0.50;0.50;;;;;;;13.10;79.52;99310.00;6183981;23;20365;-87
2023/09/20 05:15:44;;;;;;;0.50;0.50;;;;;;;13.21;79.09;99319.06;6156845;23;20313;-87
2023/09/20 05:18:12;;;;;;;0.60;0.60;;;;;;;13.35;78.62;99301.38;6184330;23;20096;-87
2023/09/20 05:20:40;;;;;;;0.50;0.50;;;;;;;13.49;78.13;99311.81;6133650;23;20353;-86
2023/09/20 05:23:08;;;;;;;0.60;0.60;;;;;;;13.57;77.72;99311.34;6157994;23;20025;-88
2023/09/20 05:25:36;;;;;;;0.55;0.55;;;;;;;13.69;77.29;99316.59;6158042;23;20093;-88
2023/09/20 05:28:04;;;;;;;0.50;0.50;;;;;;;13.77;76.83;99311.50;6157152;23;20056;-87
2023/09/20 05:30:32;;;;;;;0.50;0.50;;;;;;;13.87;76.00;99308.06;6184169;23;20109;-87
2023/09/20 05:33:00;;;;;;;0.60;0.60;;;;;;;13.98;75.38;99309.81;6134898;23;20025;-86
2023/09/20 05:35:27;;;;;;;0.50;0.50;;;;;;;14.10;75.20;99309.63;6162233;23;20420;-86
2023/09/20 05:37:55;;;;;;;0.60;0.60;;;;;;;14.16;74.72;99305.06;6194621;23;20584;-88
2023/09/20 05:40:22;;;;;;;0.50;0.50;;;;;;;14.29;73.79;99312.75;6169327;23;20021;-87
2023/09/20 05:42:52;;;;;;;0.50;0.50;;;;;;;14.41;73.52;99318.00;6167579;23;20029;-89
2023/09/20 05:45:20;;;;;;;0.50;0.50;;;;;;;14.52;72.97;99319.69;6138467;23;20427;-86
2023/09/20 05:47:49;;;;;;;0.40;0.40;;;;;;;14.62;72.79;99314.34;6206834;23;20084;-88
2023/09/20 05:50:17;;;;;;;0.50;0.50;;;;;;;14.71;72.32;99320.91;6160385;23;20059;-84
2023/09/20 05:52:51;;;;;;;0.50;0.50;;;;;;;14.84;71.43;99310.66;6183931;23;20028;-85
2023/09/20 05:55:22;;;;;;;0.50;0.50;;;;;;;14.95;71.17;99312.31;6157204;23;20021;-85
2023/09/20 05:57:54;;;;;;;0.50;0.50;;;;;;;15.01;70.56;99313.97;6155290;23;20041;-86
2023/09/20 06:00:24;;;;;;;0.53;0.53;;;;;;;15.12;69.73;99318.38;6188917;23;20025;-85
2023/09/20 06:02:51;;;;;;;0.47;0.47;;;;;;;15.24;69.41;99318.09;6186755;23;20041;-86
2023/09/20 06:05:24;;;;;;;0.52;0.52;;;;;;;15.35;68.54;99313.53;6163233;23;20025;-85
2023/09/20 06:07:53;;;;;;;0.47;0.47;;;;;;;15.46;67.92;99317.09;6162419;23;20036;-86
2023/09/20 06:10:22;;;;;;;0.50;0.50;;;;;;;15.55;67.66;99316.28;6190365;23;20044;-85
2023/09/20 06:12:53;;;;;;;0.50;0.50;;;;;;;15.70;66.85;99317.41;6185127;23;20040;-88
2023/09/20 06:15:20;;;;;;;0.50;0.50;;;;;;;15.83;66.48;99322.34;6185384;23;20107;-85
2023/09/20 06:17:47;;;;;;;0.50;0.50;;;;;;;15.92;66.00;99323.41;6186090;23;20025;-88
2023/09/20 06:20:19;;;;;;;0.50;0.50;;;;;;;16.00;65.54;99322.06;6160057;23;20345;-86
2023/09/20 06:22:51;;;;;;;0.50;0.50;;;;;;;16.11;64.93;99317.44;6156460;23;20060;-85
2023/09/20 06:25:20;;;;;;;0.50;0.50;;;;;;;16.21;64.51;99317.44;6181533;23;20021;-83
2023/09/20 06:27:50;;;;;;;0.50;0.50;;;;;;;16.28;64.25;99315.25;6154515;23;20031;-85
2023/09/20 06:30:20;;;;;;;0.43;0.43;;;;;;;16.39;63.92;99308.69;6182156;23;20052;-85
2023/09/20 06:32:48;;;;;;;0.50;0.50;;;;;;;16.51;63.33;99310.28;6180303;23;20035;-85
2023/09/20 06:35:20;;;;;;;0.40;0.40;;;;;;;16.57;62.48;99309.19;6181837;23;20532;-83
2023/09/20 06:37:48;;;;;;;0.40;0.40;;;;;;;16.60;61.81;99306.72;6181785;23;20021;-83
2023/09/20 06:40:39;;;;;;;0.50;0.50;;;;;;;16.69;61.64;99307.81;6182180;23;20095;-83
2023/09/20 06:43:03;;;;;;;0.50;0.50;;;;;;;16.79;61.30;99312.44;6181826;23;20040;-85
2023/09/20 06:45:30;;;;;;;0.40;0.40;;;;;;;16.84;60.55;99315.16;6183247;23;20327;-84
2023/09/20 06:47:57;;;;;;;0.50;0.50;;;;;;;16.92;60.68;99313.75;6155905;23;20020;-86
2023/09/20 06:50:29;;;;;;;0.50;0.50;;;;;;;17.00;59.93;99324.06;6183646;23;20079;-85
2023/09/20 06:53:01;;;;;;;0.40;0.40;;;;;;;16.95;59.59;99310.47;6183326;23;20029;-85
2023/09/20 06:55:29;;;;;;;0.50;0.50;;;;;;;17.16;59.60;99313.91;6183439;23;20075;-86
2023/09/20 06:57:58;;;;;;;0.50;0.50;;;;;;;17.40;58.88;99329.63;6182951;23;20018;-85
2023/09/20 07:00:30;;;;;;;0.47;0.47;;;;;;;17.52;58.36;99324.63;6183351;23;20075;-85
2023/09/20 07:03:03;;;;;;;0.40;0.40;;;;;;;17.53;58.36;99318.06;6183862;23;20024;-85
2023/09/20 07:05:30;;;;;;;0.40;0.40;;;;;;;17.76;57.77;99325.56;6127126;23;20520;-85
2023/09/20 07:08:01;;;;;;;0.50;0.50;;;;;;;17.85;57.00;99325.81;6151287;23;20118;-85
2023/09/20 07:10:29;;;;;;;0.50;0.50;;;;;;;17.89;57.11;99318.66;6151179;23;20101;-86
2023/09/20 07:13:00;;;;;;;0.40;0.40;;;;;;;17.94;56.31;99315.88;6150595;23;20037;-86
2023/09/20 07:15:28;;;;;;;0.50;0.50;;;;;;;18.04;56.14;99317.72;6151018;23;20030;-85
2023/09/20 07:17:59;;;;;;;0.50;0.50;;;;;;;18.25;56.00;99325.75;6150785;23;20338;-86
2023/09/20 07:20:29;;;;;;;0.43;0.43;;;;;;;18.44;55.09;99313.00;6151477;23;20053;-86
2023/09/20 07:22:58;;;;;;;0.50;0.50;;;;;;;18.51;54.99;99329.88;6150288;23;20026;-85
2023/09/20 07:25:27;;;;;;;0.50;0.50;;;;;;;18.60;55.39;99321.84;6150965;23;20026;-85
2023/09/20 07:28:00;;;;;;;0.40;0.40;;;;;;;18.78;54.70;99323.03;6150882;23;20028;-87
2023/09/20 07:30:31;;;;;;;0.40;0.40;;;;;;;18.99;54.16;99329.91;6125979;23;20042;-86
2023/09/20 07:33:02;;;;;;;0.50;0.50;;;;;;;19.11;53.43;99329.47;6152518;23;20052;-85
2023/09/20 07:35:48;;;;;;;0.50;0.50;;;;;;;19.26;52.70;99317.50;6132006;23;20066;-85
2023/09/20 07:38:28;;;;;;;0.50;0.50;;;;;;;19.53;52.36;99327.00;6159826;23;20025;-86
2023/09/20 07:41:09;;;;;;;0.40;0.40;;;;;;;19.71;51.49;99339.91;6185398;23;20092;-85
2023/09/20 07:43:38;;;;;;;0.50;0.50;;;;;;;19.79;51.45;99341.16;6158701;23;20017;-86
2023/09/20 07:46:08;;;;;;;0.50;0.50;;;;;;;19.95;50.80;99347.22;6132795;23;20025;-86
2023/09/20 07:48:50;;;;;;;0.50;0.50;;;;;;;20.13;50.82;99335.44;6157368;23;20047;-84
2023/09/20 07:51:24;;;;;;;0.50;0.50;;;;;;;20.26;50.32;99328.34;6156323;23;20025;-83
2023/09/20 07:53:55;;;;;;;0.50;0.50;;;;;;;20.44;49.75;99341.19;6184171;23;20025;-83
2023/09/20 07:56:28;;;;;;;0.50;0.50;;;;;;;20.53;49.04;99338.53;6185526;23;20092;-85
2023/09/20 07:58:55;;;;;;;0.50;0.50;;;;;;;20.65;48.50;99336.16;6184485;23;20026;-84
2023/09/20 08:01:29;;;;;;;0.52;0.52;;;;;;;20.89;48.36;99351.59;6185453;23;20027;-86
2023/09/20 08:04:00;;;;;;;0.50;0.50;;;;;;;21.07;47.74;99331.50;6186595;23;20069;-84
2023/09/20 08:06:32;;;;;;;0.50;0.50;;;;;;;21.48;46.84;99335.34;6185689;23;20096;-84
2023/09/20 08:09:00;;;;;;;0.50;0.50;;;;;;;21.67;45.93;99332.41;6161949;23;20025;-85
2023/09/20 08:11:28;;;;;;;0.50;0.50;;;;;;;21.77;45.31;99326.69;6159415;23;20092;-83
2023/09/20 08:13:59;;;;;;;0.50;0.50;;;;;;;21.80;45.79;99331.56;6185936;23;20446;-83
2023/09/20 08:16:33;;;;;;;0.43;0.43;;;;;;;21.49;46.26;99331.47;6188387;23;20021;-90
2023/09/20 08:21:51;;;;;;;0.40;0.40;;;;;;;21.74;45.50;99311.63;6164899;23;20052;-86
2023/09/20 09:00:51;;;;;;;0.40;0.40;;;;;;;25.28;37.63;99302.44;6153734;23;20105;-83
2023/09/20 09:03:19;;;;;;;0.50;0.50;;;;;;;25.33;37.56;99295.94;6080680;23;20025;-81
2023/09/20 09:05:53;;;;;;;0.40;0.40;;;;;;;25.79;36.92;99310.69;6104139;23;20176;-81
2023/09/20 09:08:21;;;;;;;0.43;0.43;;;;;;;25.91;35.88;99315.50;6128394;23;20104;-82
2023/09/20 09:10:49;;;;;;;0.50;0.50;;;;;;;25.82;35.50;99306.44;6128075;23;20484;-82
2023/09/20 09:13:16;;;;;;;0.40;0.40;;;;;;;25.69;35.83;99309.13;6152915;23;20073;-82
2023/09/20 09:15:45;;;;;;;0.50;0.50;;;;;;;25.68;35.69;99306.72;6126765;23;20025;-82
2023/09/20 09:18:18;;;;;;;0.40;0.40;;;;;;;25.49;35.48;99312.72;6154157;23;20030;-82
2023/09/20 09:20:55;;;;;;;0.40;0.40;;;;;;;25.63;35.90;99298.63;6128614;23;20026;-81
2023/09/20 09:23:33;;;;;;;0.40;0.40;;;;;;;25.52;35.46;99303.72;6096990;23;20033;-82
2023/09/20 09:26:07;;;;;;;0.50;0.50;;;;;;;25.64;35.95;99291.94;6159176;23;20468;-81
2023/09/20 09:28:40;;;;;;;0.45;0.45;;;;;;;26.50;34.83;99298.59;6158336;23;20066;-80
2023/09/20 09:31:08;;;;;;;0.50;0.50;;;;;;;26.97;33.38;99302.94;6157350;23;20027;-81
2023/09/20 09:33:38;;;;;;;0.50;0.50;;;;;;;26.92;33.17;99286.53;6183147;23;20021;-81
2023/09/20 09:36:06;;;;;;;0.50;0.50;;;;;;;27.25;32.28;99291.97;6157278;23;20472;-81
2023/09/20 09:38:35;;;;;;;0.50;0.50;;;;;;;27.21;32.31;99304.88;6183779;23;20113;-80
2023/09/20 09:41:02;;;;;;;0.40;0.40;;;;;;;27.08;32.56;99284.66;6182852;23;20039;-81
2023/09/20 09:43:30;;;;;;;0.40;0.40;;;;;;;26.86;32.94;99287.91;6183640;23;20067;-81
2023/09/20 09:46:06;;;;;;;0.50;0.50;;;;;;;27.13;32.88;99280.88;6159855;23;20071;-81
2023/09/20 09:48:46;;;;;;;0.50;0.50;;;;;;;27.65;32.24;99280.88;6185566;23;20021;-80
2023/09/20 09:51:17;;;;;;;0.50;0.50;;;;;;;27.53;31.95;99286.47;6160992;23;20124;-81
2023/09/20 09:53:46;;;;;;;0.50;0.50;;;;;;;27.25;32.13;99299.47;6185624;23;20084;-83
2023/09/20 09:56:14;;;;;;;0.50;0.50;;;;;;;27.53;31.51;99299.53;6187271;23;20045;-81
2023/09/20 09:58:44;;;;;;;0.40;0.40;;;;;;;27.94;30.80;99290.03;6160003;23;20053;-81
2023/09/20 10:01:14;;;;;;;0.50;0.50;;;;;;;27.66;31.79;99284.47;6182938;23;20020;-82
2023/09/20 10:03:50;;;;;;;0.40;0.40;;;;;;;27.84;31.25;99274.69;6159066;23;20414;-85
2023/09/20 10:06:23;;;;;;;0.50;0.50;;;;;;;28.15;31.07;99280.69;6182759;23;20353;-86
2023/09/20 10:08:56;;;;;;;0.50;0.50;;;;;;;27.71;30.90;99264.81;6159132;23;20025;-85
2023/09/20 10:11:24;;;;;;;0.50;0.50;;;;;;;27.87;31.37;99278.72;6184445;23;20192;-86
2023/09/20 10:13:52;;;;;;;0.50;0.50;;;;;;;27.78;30.76;99266.97;6183701;23;20021;-87
2023/09/20 10:16:20;;;;;;;0.50;0.50;;;;;;;28.42;30.14;99296.47;6186274;23;20025;-86
2023/09/20 10:18:53;;;;;;;0.40;0.40;;;;;;;28.73;29.92;99275.44;6162667;23;20016;-87
2023/09/20 10:21:30;;;;;;;0.40;0.40;;;;;;;29.11;29.21;99297.00;6189973;23;20049;-87
2023/09/20 10:24:07;;;;;;;;;;;;;;;29.13;29.43;99291.91;6195786;23;20024;-89
2023/09/20 10:26:39;;;;;;;0.40;0.40;;;;;;;28.55;29.17;99274.22;6201108;23;19943;-88
2023/09/20 10:29:24;;;;;;;0.40;0.40;;;;;;;28.19;29.58;99264.94;6191308;23;20476;-85
2023/09/20 10:32:06;;;;;;;0.50;0.50;;;;;;;28.86;28.62;99304.72;6195847;23;20582;-87
2023/09/20 10:34:40;;;;;;;0.50;0.50;;;;;;;28.49;29.22;99257.03;6126158;23;20020;-88
2023/09/20 10:37:10;;;;;;;0.50;0.50;;;;;;;28.20;29.58;99261.00;6174517;23;20021;-88
2023/09/20 10:39:44;;;;;;;0.50;0.50;;;;;;;28.36;29.38;99266.56;6195679;23;20021;-84
2023/09/20 10:42:13;;;;;;;0.50;0.50;;;;;;;28.80;29.07;99299.81;6184187;23;20029;-86
2023/09/20 10:44:45;;;;;;;0.50;0.50;;;;;;;28.29;29.13;99292.97;6141853;23;20020;-89
2023/09/20 10:47:39;;;;;;;0.50;0.50;;;;;;;27.98;29.46;99268.75;6132405;23;20017;-89
2023/09/20 10:50:11;;;;;;;0.50;0.50;;;;;;;28.28;29.28;99260.00;6211239;23;20068;-93
2023/09/20 10:56:51;;;;;;;0.50;0.50;;;;;;;28.62;27.98;99258.53;6213130;23;19904;-90
2023/09/20 10:59:21;;;;;;;0.50;0.50;;;;;;;28.43;28.22;99270.31;6161181;23;20021;-93
2023/09/20 11:01:50;;;;;;;0.50;0.50;;;;;;;28.56;28.15;99268.28;6209838;23;20025;-92
2023/09/20 11:04:18;;;;;;;0.50;0.50;;;;;;;28.82;27.91;99276.06;6210034;23;20012;-91
2023/09/20 11:06:47;;;;;;;0.50;0.50;;;;;;;29.01;27.35;99299.53;6160304;23;20021;-95
2023/09/20 11:09:15;;;;;;;0.50;0.50;;;;;;;28.77;27.77;99253.34;6209589;23;20056;-93
2023/09/20 11:11:43;;;;;;;0.50;0.50;;;;;;;29.21;27.59;99264.28;6207789;23;20021;-93
2023/09/20 11:14:12;;;;;;;0.50;0.50;;;;;;;29.74;27.05;99257.09;6154289;23;20487;-94
2023/09/20 11:16:41;;;;;;;0.50;0.50;;;;;;;29.23;27.67;99257.19;6208727;23;20029;-95
2023/09/20 11:19:11;;;;;;;0.40;0.40;;;;;;;29.92;27.16;99256.63;6208282;23;20021;-92
2023/09/20 11:21:43;;;;;;;0.40;0.40;;;;;;;30.17;26.27;99263.47;6210588;23;20076;-92
2023/09/20 11:24:14;;;;;;;0.50;0.50;;;;;;;30.34;26.26;99253.06;6186080;23;20020;-90
2023/09/20 11:26:47;;;;;;;0.40;0.40;;;;;;;30.14;26.44;99264.22;6209098;23;20009;-95
2023/09/20 11:29:18;;;;;;;0.50;0.50;;;;;;;29.48;27.32;99268.06;6179411;23;20515;-94
2023/09/20 11:32:12;;;;;;;0.43;0.43;;;;;;;29.35;27.18;99250.72;6184336;23;20021;-92
2023/09/20 11:34:43;;;;;;;0.40;0.40;;;;;;;29.98;26.61;99252.38;6155350;23;20076;-92
2023/09/20 11:37:35;;;;;;;0.50;0.50;;;;;;;29.80;26.62;99254.81;6177115;23;20041;-93
2023/09/20 11:40:18;;;;;;;0.50;0.50;;;;;;;29.98;26.20;99249.59;6202831;23;20527;-94
2023/09/20 11:43:12;;;;;;;0.50;0.50;;;;;;;30.13;25.76;99240.34;6096165;23;20036;-91
2023/09/20 11:45:43;;;;;;;0.50;0.50;;;;;;;30.35;25.63;99249.09;6096975;23;20029;-92
2023/09/20 11:48:27;;;;;;;0.50;0.50;;;;;;;30.11;25.37;99253.03;6142984;23;20002;-92
2023/09/20 11:50:57;;;;;;;0.43;0.43;;;;;;;29.36;26.46;99268.97;6098157;23;20095;-91
2023/09/20 11:53:27;;;;;;;0.50;0.50;;;;;;;29.37;26.83;99243.63;6116515;23;20054;-91
2023/09/20 11:56:10;;;;;;;0.50;0.50;;;;;;;29.88;25.86;99225.97;6116215;23;20029;-90
2023/09/20 11:58:37;;;;;;;0.50;0.50;;;;;;;29.81;25.87;99242.53;6089683;23;20130;-91
2023/09/20 12:01:10;;;;;;;0.40;0.40;;;;;;;29.88;25.66;99236.28;6136753;23;20026;-92
2023/09/20 12:03:37;;;;;;;0.47;0.47;;;;;;;30.08;25.94;99246.22;6122495;23;20026;-91
2023/09/20 12:06:16;;;;;;;0.45;0.45;;;;;;;30.21;25.29;99224.59;6061594;23;20035;-90
2023/09/20 12:14:58;;;;;;;0.50;0.50;;;;;;;28.25;27.66;99222.69;6225943;23;20036;-90
2023/09/20 12:17:31;;;;;;;0.50;0.50;;;;;;;28.86;26.80;99221.41;6153594;23;20021;-90
2023/09/20 12:20:15;;;;;;;0.50;0.50;;;;;;;29.71;26.21;99216.13;6136429;23;20051;-89
2023/09/20 12:22:43;;;;;;;0.50;0.50;;;;;;;29.90;25.81;99217.25;6177768;23;20053;-90
2023/09/20 12:25:26;;;;;;;0.40;0.40;;;;;;;29.63;26.29;99211.56;6177874;23;20017;-88
2023/09/20 12:27:54;;;;;;;0.40;0.40;;;;;;;29.55;26.45;99243.97;6176532;23;20024;-88
2023/09/20 12:30:39;;;;;;;0.30;0.30;;;;;;;29.01;27.04;99221.72;6183734;23;20056;-91
2023/09/20 12:36:21;;;;;;;0.50;0.50;;;;;;;28.93;27.18;99213.22;6210994;23;20048;-91
2023/09/20 12:39:05;;;;;;;0.40;0.40;;;;;;;29.06;27.27;99202.84;6139332;23;20020;-90
2023/09/20 12:42:03;;;;;;;0.50;0.50;;;;;;;29.82;26.58;99221.88;6187104;23;20024;-89
2023/09/20 12:44:33;;;;;;;0.43;0.43;;;;;;;29.22;27.19;99250.03;6229960;23;20080;-89